createdAt,value
2018-06-12T00:00:49.328Z,18.10
2018-06-12T00:03:18.375Z,18.10
2018-06-12T00:05:47.402Z,18.10
2018-06-12T00:08:16.411Z,18.10
2018-06-12T00:10:45.448Z,18.10
2018-06-12T00:13:14.437Z,18.10
2018-06-12T00:15:43.464Z,18.20
2018-06-12T00:18:12.467Z,18.20
2018-06-12T00:20:41.522Z,18.20
2018-06-12T00:23:10.555Z,18.20
2018-06-12T00:28:09.627Z,18.20
2018-06-12T00:30:38.613Z,18.20
2018-06-12T00:33:07.664Z,18.20
2018-06-12T00:35:36.678Z,18.10
2018-06-12T00:38:05.747Z,18.10
2018-06-12T00:40:34.752Z,18.10
2018-06-12T00:43:05.144Z,18.10
2018-06-12T00:45:34.294Z,18.20
2018-06-12T00:48:03.303Z,18.20
2018-06-12T00:50:32.373Z,18.20
2018-06-12T00:53:01.436Z,18.10
2018-06-12T00:55:30.507Z,18.10
2018-06-12T00:57:59.530Z,18.10
2018-06-12T01:00:29.192Z,18.10
2018-06-12T01:02:58.242Z,18.10
2018-06-12T01:05:27.326Z,18.10
2018-06-12T01:07:56.349Z,18.10
2018-06-12T01:10:25.359Z,18.10
2018-06-12T01:12:54.814Z,18.00
2018-06-12T01:15:23.833Z,18.00
2018-06-12T01:17:52.874Z,18.00
2018-06-12T01:20:21.866Z,18.00
2018-06-12T01:25:19.436Z,17.80
2018-06-12T01:27:48.475Z,17.80
2018-06-12T01:30:17.496Z,17.80
2018-06-12T01:32:46.570Z,17.80
2018-06-12T01:35:15.591Z,17.90
2018-06-12T01:37:44.627Z,17.90
2018-06-12T01:40:13.678Z,18.00
2018-06-12T01:42:42.702Z,18.00
2018-06-12T01:45:11.787Z,18.00
2018-06-12T01:47:40.800Z,18.00
2018-06-12T01:50:10.375Z,18.00
2018-06-12T01:52:39.374Z,18.00
2018-06-12T01:55:08.399Z,18.00
2018-06-12T01:57:37.412Z,18.00
2018-06-12T02:00:06.499Z,18.00
2018-06-12T02:02:35.782Z,18.00
2018-06-12T02:05:04.883Z,18.00
2018-06-12T02:07:33.911Z,18.00
2018-06-12T02:10:02.960Z,18.00
2018-06-12T02:12:32.194Z,17.80
2018-06-12T02:15:01.251Z,17.90
2018-06-12T02:17:30.272Z,17.80
2018-06-12T02:19:59.310Z,17.70
2018-06-12T02:22:28.329Z,17.70
2018-06-12T02:24:57.367Z,17.70
2018-06-12T02:27:26.371Z,17.70
2018-06-12T02:29:55.413Z,17.70
2018-06-12T02:32:24.404Z,17.70
2018-06-12T02:34:53.592Z,17.70
2018-06-12T02:37:22.621Z,17.70
2018-06-12T02:39:51.939Z,17.70
2018-06-12T02:42:21.872Z,17.60
2018-06-12T02:44:50.943Z,17.50
2018-06-12T02:47:20.045Z,17.50
2018-06-12T02:49:49.060Z,17.40
2018-06-12T02:52:18.106Z,17.40
2018-06-12T02:54:47.128Z,17.40
2018-06-12T02:57:16.167Z,17.30
2018-06-12T02:59:45.193Z,17.30
2018-06-12T03:02:14.295Z,17.30
2018-06-12T03:04:43.298Z,17.30
2018-06-12T03:07:12.364Z,17.30
2018-06-12T03:09:41.413Z,17.40
2018-06-12T03:12:10.416Z,17.30
2018-06-12T03:14:39.431Z,17.30
2018-06-12T03:17:08.438Z,17.30
2018-06-12T03:22:06.044Z,17.30
2018-06-12T03:24:35.091Z,17.30
2018-06-12T03:27:04.089Z,17.30
2018-06-12T03:29:33.997Z,17.30
2018-06-12T03:32:03.004Z,17.30
2018-06-12T03:34:32.127Z,17.30
2018-06-12T03:37:01.148Z,17.20
2018-06-12T03:39:30.211Z,17.30
2018-06-12T03:41:59.241Z,17.30
2018-06-12T03:44:28.288Z,17.40
2018-06-12T03:46:57.277Z,17.40
2018-06-12T03:49:26.360Z,17.40
2018-06-12T03:51:55.392Z,17.40
2018-06-12T03:54:24.409Z,17.40
2018-06-12T03:56:53.594Z,17.30
2018-06-12T03:59:22.595Z,17.40
2018-06-12T04:01:51.667Z,17.30
2018-06-12T04:04:20.666Z,17.40
2018-06-12T04:06:49.692Z,17.40
2018-06-12T04:09:18.823Z,17.40
2018-06-12T04:11:47.866Z,17.40
2018-06-12T04:14:16.880Z,17.40
2018-06-12T04:16:45.953Z,17.40
2018-06-12T04:19:14.942Z,17.40
2018-06-12T04:21:43.985Z,17.40
2018-06-12T04:24:13.190Z,17.50
2018-06-12T04:26:42.246Z,17.50
2018-06-12T04:29:11.336Z,17.50
2018-06-12T04:31:40.403Z,17.50
2018-06-12T04:34:09.450Z,17.40
2018-06-12T04:36:38.511Z,17.40
2018-06-12T04:39:08.891Z,17.40
2018-06-12T04:41:37.887Z,17.40
2018-06-12T04:44:07.004Z,17.40
2018-06-12T04:46:36.001Z,17.40
2018-06-12T04:49:05.061Z,17.50
2018-06-12T04:51:34.165Z,17.50
2018-06-12T04:54:03.219Z,17.60
2018-06-12T04:56:32.263Z,17.60
2018-06-12T04:59:01.348Z,17.60
2018-06-12T05:01:30.388Z,17.60
2018-06-12T05:04:00.264Z,17.60
2018-06-12T05:06:29.848Z,17.60
2018-06-12T05:08:58.851Z,17.60
2018-06-12T05:11:27.970Z,17.60
2018-06-12T05:13:56.982Z,17.60
2018-06-12T05:16:26.005Z,17.50
2018-06-12T05:18:55.062Z,17.50
2018-06-12T05:21:24.228Z,17.50
2018-06-12T05:23:53.681Z,17.50
2018-06-12T05:26:22.759Z,17.50
2018-06-12T05:28:51.788Z,17.50
2018-06-12T05:31:20.794Z,17.50
2018-06-12T05:33:49.859Z,17.50
2018-06-12T05:36:18.985Z,17.60
2018-06-12T05:38:48.027Z,17.60
2018-06-12T05:41:17.036Z,17.60
2018-06-12T05:43:46.203Z,17.60
2018-06-12T05:46:15.188Z,17.60
2018-06-12T05:48:44.283Z,17.70
2018-06-12T05:51:13.289Z,17.70
2018-06-12T05:53:42.338Z,17.70
2018-06-12T05:56:11.379Z,17.80
2018-06-12T05:58:41.335Z,17.70
2018-06-12T06:01:10.407Z,17.70
2018-06-12T06:03:39.446Z,17.70
2018-06-12T06:06:08.573Z,17.70
2018-06-12T06:08:37.606Z,17.80
2018-06-12T06:11:06.698Z,17.90
2018-06-12T06:13:35.716Z,17.80
2018-06-12T06:16:04.807Z,17.80
2018-06-12T06:18:33.845Z,17.90
2018-06-12T06:21:02.980Z,17.90
2018-06-12T06:23:32.056Z,17.90
2018-06-12T06:26:01.151Z,17.80
2018-06-12T06:28:30.196Z,17.80
2018-06-12T06:30:59.223Z,17.90
2018-06-12T06:33:29.248Z,17.90
2018-06-12T06:35:58.277Z,17.90
2018-06-12T06:38:27.303Z,17.80
2018-06-12T06:40:56.306Z,17.90
2018-06-12T06:43:25.735Z,17.90
2018-06-12T06:45:54.728Z,18.00
2018-06-12T06:48:23.776Z,18.00
2018-06-12T06:50:52.824Z,18.00
2018-06-12T06:53:21.876Z,18.00
2018-06-12T06:55:50.884Z,18.00
2018-06-12T06:58:19.939Z,18.00
2018-06-12T07:00:48.945Z,18.10
2018-06-12T07:03:18.023Z,18.10
2018-06-12T07:05:47.063Z,18.30
2018-06-12T07:08:16.078Z,18.50
2018-06-12T07:10:45.097Z,18.60
2018-06-12T07:13:14.592Z,18.80
2018-06-12T07:15:43.615Z,19.00
2018-06-12T07:18:12.711Z,19.30
2018-06-12T07:21:20.727Z,19.70
2018-06-12T07:23:49.819Z,20.20
2018-06-12T07:26:18.875Z,20.90
2018-06-12T07:28:47.900Z,21.00
2018-06-12T07:31:17.100Z,21.00
2018-06-12T07:33:46.452Z,20.90
2018-06-12T07:36:15.644Z,20.70
2018-06-12T07:38:44.642Z,20.50
2018-06-12T07:41:13.712Z,20.50
2018-06-12T07:43:42.729Z,20.50
2018-06-12T07:46:11.764Z,20.40
2018-06-12T07:48:40.789Z,20.30
2018-06-12T07:51:09.842Z,20.20
2018-06-12T07:53:38.925Z,20.20
2018-06-12T07:56:07.995Z,20.00
2018-06-12T07:58:37.062Z,19.90
2018-06-12T08:01:06.065Z,20.00
2018-06-12T08:03:35.085Z,20.00
2018-06-12T08:08:32.731Z,20.00
2018-06-12T08:11:01.776Z,20.10
2018-06-12T08:13:30.811Z,20.20
2018-06-12T08:15:59.830Z,20.40
2018-06-12T08:18:28.807Z,20.80
2018-06-12T08:20:58.034Z,21.20
2018-06-12T08:23:27.147Z,21.20
2018-06-12T08:25:56.282Z,21.20
2018-06-12T08:28:25.300Z,20.90
2018-06-12T08:30:54.329Z,20.90
2018-06-12T08:33:23.357Z,21.00
2018-06-12T08:35:52.336Z,21.00
2018-06-12T08:38:21.381Z,21.00
2018-06-12T08:40:50.458Z,21.10
2018-06-12T08:43:19.500Z,21.10
2018-06-12T08:45:48.589Z,21.10
2018-06-12T08:48:17.640Z,21.30
2018-06-12T08:50:46.622Z,21.20
2018-06-12T08:53:15.669Z,21.20
2018-06-12T08:55:44.668Z,21.20
2018-06-12T08:58:14.635Z,21.30
2018-06-12T09:00:43.700Z,21.50
2018-06-12T09:03:12.850Z,21.70
2018-06-12T09:05:41.884Z,21.60
2018-06-12T09:08:10.883Z,21.40
2018-06-12T09:10:39.942Z,21.30
2018-06-12T09:13:08.983Z,21.30
2018-06-12T09:15:38.194Z,21.20
2018-06-12T09:18:07.344Z,21.20
2018-06-12T09:20:36.334Z,21.10
2018-06-12T09:23:05.438Z,21.10
2018-06-12T09:25:34.431Z,21.10
2018-06-12T09:28:03.451Z,21.20
2018-06-12T09:30:32.483Z,21.30
2018-06-12T09:33:01.615Z,21.30
2018-06-12T09:35:30.647Z,21.30
2018-06-12T09:37:59.722Z,21.40
2018-06-12T09:40:29.328Z,21.40
2018-06-12T09:45:27.643Z,21.40
2018-06-12T09:47:57.219Z,21.40
2018-06-12T09:50:26.279Z,21.50
2018-06-12T09:52:55.283Z,21.70
2018-06-12T09:55:24.337Z,21.90
2018-06-12T09:57:53.346Z,21.90
2018-06-12T10:00:27.563Z,22.00
2018-06-12T10:02:56.674Z,21.90
2018-06-12T10:05:25.695Z,21.80
2018-06-12T10:07:54.785Z,21.80
2018-06-12T10:10:24.077Z,21.80
2018-06-12T10:12:53.098Z,21.90
2018-06-12T10:15:22.170Z,21.80
2018-06-12T10:17:51.180Z,21.90
2018-06-12T10:20:20.243Z,22.00
2018-06-12T10:22:49.271Z,22.00
2018-06-12T10:25:18.332Z,22.10
2018-06-12T10:27:47.323Z,22.20
2018-06-12T10:30:16.370Z,22.40
2018-06-12T10:32:45.449Z,22.50
2018-06-12T10:35:14.478Z,22.70
2018-06-12T10:37:43.492Z,22.90
2018-06-12T10:40:12.532Z,22.90
2018-06-12T10:42:41.530Z,22.80
2018-06-12T10:45:10.574Z,22.80
2018-06-12T11:44:12.155Z,22.90
2018-06-12T11:46:42.027Z,22.90
2018-06-12T11:49:11.003Z,22.90
2018-06-12T11:51:40.078Z,23.00
2018-06-12T11:54:09.100Z,23.10
2018-06-12T11:56:38.105Z,23.00
2018-06-12T11:59:07.139Z,23.20
2018-06-12T12:01:36.151Z,23.50
2018-06-12T12:04:05.244Z,23.70
2018-06-12T12:06:34.271Z,23.80
2018-06-12T12:09:03.517Z,23.90
2018-06-12T12:11:32.560Z,24.00
2018-06-12T12:14:01.585Z,24.00
2018-06-12T12:16:30.563Z,23.90
2018-06-12T12:18:59.815Z,23.80
2018-06-12T12:21:28.867Z,23.60
2018-06-12T12:23:57.877Z,23.40
2018-06-12T12:26:26.942Z,23.30
2018-06-12T12:28:55.947Z,23.30
2018-06-12T12:31:24.992Z,23.30
2018-06-12T12:33:54.014Z,23.40
2018-06-12T12:36:23.116Z,23.50
2018-06-12T12:41:20.737Z,23.80
2018-06-12T12:43:49.778Z,23.80
2018-06-12T12:46:18.780Z,23.80
2018-06-12T12:51:16.353Z,23.70
2018-06-12T12:53:45.848Z,23.40
2018-06-12T12:56:14.839Z,23.20
2018-06-12T12:58:44.316Z,23.20
2018-06-12T13:01:13.443Z,23.10
2018-06-12T13:03:42.531Z,23.10
2018-06-12T13:06:11.636Z,23.10
2018-06-12T13:11:09.339Z,23.20
2018-06-12T13:13:38.423Z,23.10
2018-06-12T13:16:07.569Z,23.00
2018-06-12T13:18:36.591Z,23.00
2018-06-12T13:21:05.638Z,23.00
2018-06-12T13:23:34.644Z,23.10
2018-06-12T13:26:03.702Z,23.10
2018-06-12T13:28:32.688Z,23.10
2018-06-12T13:31:01.758Z,23.20
2018-06-12T13:33:30.842Z,23.20
2018-06-12T13:35:59.884Z,23.20
2018-06-12T13:38:28.915Z,23.10
2018-06-12T13:40:57.912Z,23.10
2018-06-12T13:43:26.955Z,23.00
2018-06-12T13:45:55.955Z,22.90
2018-06-12T13:48:25.052Z,22.90
2018-06-12T13:50:54.077Z,22.80
2018-06-12T13:53:23.116Z,22.50
2018-06-12T13:55:52.599Z,22.10
2018-06-12T13:58:21.671Z,21.60
2018-06-12T14:00:50.732Z,21.10
2018-06-12T14:03:19.744Z,20.80
2018-06-12T14:05:48.863Z,20.40
2018-06-12T14:08:17.873Z,19.90
2018-06-12T14:10:46.957Z,19.50
2018-06-12T14:13:15.999Z,19.30
2018-06-12T14:15:45.076Z,19.10
2018-06-12T14:18:14.062Z,19.00
2018-06-12T14:20:44.142Z,19.00
2018-06-12T14:23:13.159Z,19.10
2018-06-12T14:25:42.200Z,19.00
2018-06-12T14:28:11.484Z,18.90
2018-06-12T14:30:40.559Z,18.80
2018-06-12T14:33:09.549Z,18.60
2018-06-12T14:35:38.638Z,18.40
2018-06-12T14:38:07.687Z,18.10
2018-06-12T14:43:05.460Z,17.80
2018-06-12T14:45:34.738Z,17.70
2018-06-12T14:48:03.822Z,17.60
2018-06-12T14:50:32.829Z,17.50
2018-06-12T14:53:01.923Z,17.50
2018-06-12T14:55:31.055Z,17.50
2018-06-12T14:58:00.129Z,17.50
2018-06-12T15:02:57.727Z,17.60
2018-06-12T15:05:27.551Z,17.60
2018-06-12T15:07:56.547Z,17.60
2018-06-12T15:10:25.852Z,17.70
2018-06-12T15:12:54.839Z,17.70
2018-06-12T15:15:23.930Z,17.60
2018-06-12T15:17:53.023Z,17.60
2018-06-12T15:20:22.060Z,17.60
2018-06-12T15:22:51.051Z,17.60
2018-06-12T15:25:20.130Z,17.60
2018-06-12T15:27:49.186Z,17.60
2018-06-12T15:32:46.893Z,17.50
2018-06-12T15:35:15.982Z,17.40
2018-06-12T15:37:44.987Z,17.40
2018-06-12T15:40:14.048Z,17.40
2018-06-12T15:42:43.116Z,17.40
2018-06-12T15:45:12.143Z,17.40
2018-06-12T15:47:41.179Z,17.50
2018-06-12T15:50:10.237Z,17.50
2018-06-12T15:52:40.152Z,17.50
2018-06-12T15:55:09.144Z,17.40
2018-06-12T15:57:38.169Z,17.10
2018-06-12T16:00:07.200Z,17.00
2018-06-12T16:02:36.246Z,16.80
2018-06-12T16:05:05.397Z,16.70
2018-06-12T16:07:34.439Z,16.50
2018-06-12T16:10:03.508Z,16.40
2018-06-12T16:12:32.526Z,16.40
2018-06-12T16:15:01.556Z,16.30
2018-06-12T16:17:30.588Z,16.30
2018-06-12T16:19:59.707Z,16.30
2018-06-12T16:22:28.711Z,16.30
2018-06-12T16:24:57.771Z,16.30
2018-06-12T16:27:26.792Z,16.30
2018-06-12T16:29:55.822Z,16.20
2018-06-12T16:32:24.858Z,16.20
2018-06-12T16:34:53.944Z,16.30
2018-06-12T16:37:22.928Z,16.30
2018-06-12T16:39:51.940Z,16.40
2018-06-12T16:42:21.073Z,16.30
2018-06-12T16:44:50.094Z,16.20
2018-06-12T16:47:19.120Z,16.10
2018-06-12T16:49:48.128Z,16.10
2018-06-12T16:52:17.147Z,16.10
2018-06-12T16:54:46.176Z,16.10
2018-06-12T16:57:15.221Z,16.10
2018-06-12T16:59:44.278Z,16.10
2018-06-12T17:02:13.310Z,16.20
2018-06-12T17:04:42.356Z,16.20
2018-06-12T17:07:11.358Z,16.20
2018-06-12T17:09:40.437Z,16.20
2018-06-12T17:12:09.458Z,16.20
2018-06-12T17:14:38.526Z,16.10
2018-06-12T17:17:07.517Z,16.10
2018-06-12T17:19:36.617Z,16.10
2018-06-12T17:22:06.168Z,16.10
2018-06-12T17:24:35.270Z,16.10
2018-06-12T17:27:04.315Z,16.10
2018-06-12T17:29:33.368Z,16.10
2018-06-12T17:32:02.469Z,16.10
2018-06-12T17:34:31.574Z,16.10
2018-06-12T17:37:00.620Z,16.10
2018-06-12T17:39:29.648Z,16.00
2018-06-12T17:41:58.710Z,16.00
2018-06-12T17:44:28.894Z,16.10
2018-06-12T17:46:58.009Z,16.10
2018-06-12T17:49:27.016Z,16.10
2018-06-12T17:51:56.080Z,16.10
2018-06-12T17:54:26.019Z,16.10
2018-06-12T17:56:55.067Z,16.10
2018-06-12T17:59:24.064Z,16.10
2018-06-12T18:04:21.695Z,16.00
2018-06-12T18:06:50.799Z,16.00
2018-06-12T18:09:19.834Z,16.00
2018-06-12T18:14:17.428Z,15.90
2018-06-12T18:16:46.427Z,15.90
2018-06-12T18:19:15.467Z,15.80
2018-06-12T18:24:13.023Z,15.80
2018-06-12T18:26:42.055Z,15.80
2018-06-12T18:31:39.763Z,15.80
2018-06-12T18:34:08.811Z,15.80
2018-06-12T18:36:38.741Z,15.80
2018-06-12T18:39:08.562Z,15.70
2018-06-12T18:41:38.462Z,15.60
2018-06-12T18:44:07.466Z,15.60
2018-06-12T18:46:36.479Z,15.50
2018-06-12T18:49:05.516Z,15.50
2018-06-12T18:51:34.549Z,15.40
2018-06-12T18:54:03.631Z,15.40
2018-06-12T18:56:32.661Z,15.40
2018-06-12T18:59:01.676Z,15.30
2018-06-12T19:01:30.715Z,15.20
2018-06-12T19:03:59.792Z,15.20
2018-06-12T19:06:28.886Z,15.30
2018-06-12T19:08:57.892Z,15.30
2018-06-12T19:11:26.978Z,15.30
2018-06-12T19:13:55.991Z,15.20
2018-06-12T19:16:25.019Z,15.10
2018-06-12T19:18:54.047Z,15.20
2018-06-12T19:21:23.043Z,15.20
2018-06-12T19:23:52.866Z,15.20
2018-06-12T19:26:21.894Z,15.20
2018-06-12T19:28:50.904Z,15.20
2018-06-12T19:31:19.977Z,15.20
2018-06-12T19:33:49.033Z,15.30
2018-06-12T19:36:18.065Z,15.30
2018-06-12T19:38:47.096Z,15.20
2018-06-12T19:41:16.178Z,15.30
2018-06-12T19:43:45.216Z,15.30
2018-06-12T19:46:14.288Z,15.30
2018-06-12T19:48:43.358Z,15.30
2018-06-12T19:51:12.329Z,15.30
2018-06-12T19:53:41.355Z,15.40
2018-06-12T19:56:10.356Z,15.40
2018-06-12T19:58:39.395Z,15.40
2018-06-12T20:01:08.462Z,15.40
2018-06-12T20:03:37.522Z,15.50
2018-06-12T20:06:06.589Z,15.50
2018-06-12T20:08:35.615Z,15.50
2018-06-12T20:11:04.618Z,15.40
2018-06-12T20:13:33.651Z,15.40
2018-06-12T20:16:02.650Z,15.40
2018-06-12T20:18:31.726Z,15.40
2018-06-12T20:21:00.748Z,15.40
2018-06-12T20:23:30.236Z,15.40
2018-06-12T20:25:59.243Z,15.40
2018-06-12T20:28:28.269Z,15.40
2018-06-12T20:30:57.293Z,15.40
2018-06-12T20:33:26.359Z,15.50
2018-06-12T20:35:55.503Z,15.50
2018-06-12T20:38:24.721Z,15.50
2018-06-12T20:40:53.831Z,15.50
2018-06-12T20:43:22.808Z,15.50
2018-06-12T20:45:51.891Z,15.50
2018-06-12T20:48:20.908Z,15.50
2018-06-12T20:53:18.522Z,15.40
2018-06-12T20:55:47.528Z,15.50
2018-06-12T20:58:16.552Z,15.50
2018-06-12T21:00:45.560Z,15.50
2018-06-12T21:03:14.760Z,15.50
2018-06-12T21:05:43.808Z,15.50
2018-06-12T21:08:12.880Z,15.40
2018-06-12T21:10:41.920Z,15.40
2018-06-12T21:13:10.982Z,15.50
2018-06-12T21:15:40.003Z,15.50
2018-06-12T21:18:09.052Z,15.50
2018-06-12T21:20:38.087Z,15.50
2018-06-12T21:23:07.152Z,15.50
2018-06-12T21:25:36.159Z,15.50
2018-06-12T21:28:05.156Z,15.50
2018-06-12T21:30:34.191Z,15.60
2018-06-12T21:33:03.226Z,15.60
2018-06-12T21:35:32.255Z,15.50
2018-06-12T21:38:01.317Z,15.50
2018-06-12T21:40:30.358Z,15.60
2018-06-12T21:42:59.390Z,15.50
2018-06-12T21:45:28.430Z,15.50
2018-06-12T21:47:57.611Z,15.50
2018-06-12T21:50:26.625Z,15.50
2018-06-12T21:52:55.676Z,15.50
2018-06-12T21:55:24.683Z,15.50
2018-06-12T21:57:53.856Z,15.50
2018-06-12T22:00:33.775Z,15.50
2018-06-12T22:03:02.923Z,15.50
2018-06-12T22:05:31.923Z,15.50
2018-06-12T22:10:29.597Z,15.50
2018-06-12T22:15:27.217Z,15.50
2018-06-12T22:17:56.790Z,15.50
2018-06-12T22:20:25.835Z,15.50
2018-06-12T22:22:54.855Z,15.50
2018-06-12T22:25:23.882Z,15.50
2018-06-12T22:27:52.924Z,15.50
2018-06-12T22:30:22.016Z,15.50
2018-06-12T22:32:51.053Z,15.40
2018-06-12T22:35:20.113Z,15.40
2018-06-12T22:37:49.203Z,15.40
2018-06-12T22:40:18.265Z,15.40
2018-06-12T22:42:47.289Z,15.40
2018-06-12T22:45:16.303Z,15.40
2018-06-12T22:47:45.342Z,15.40
2018-06-12T22:50:14.372Z,15.30
2018-06-12T22:52:43.416Z,15.30
2018-06-12T22:55:12.398Z,15.30
2018-06-12T22:57:41.505Z,15.30
2018-06-12T23:00:10.883Z,15.20
2018-06-12T23:02:39.894Z,15.20
2018-06-12T23:05:08.918Z,15.20
2018-06-12T23:07:37.919Z,15.20
2018-06-12T23:10:06.968Z,15.20
2018-06-12T23:12:36.855Z,15.30
2018-06-12T23:15:06.015Z,15.20
2018-06-12T23:17:35.070Z,15.20
2018-06-12T23:20:14.995Z,15.20
2018-06-12T23:25:12.529Z,15.30
2018-06-12T23:27:41.597Z,15.30
2018-06-12T23:30:10.618Z,15.30
2018-06-12T23:32:39.668Z,15.30
2018-06-12T23:35:08.662Z,15.30
2018-06-12T23:37:37.766Z,15.30
2018-06-12T23:40:06.840Z,15.30
2018-06-12T23:42:35.913Z,15.30
2018-06-12T23:45:04.947Z,15.30
2018-06-12T23:47:33.976Z,15.30
2018-06-12T23:50:03.002Z,15.30
2018-06-12T23:52:32.006Z,15.20
2018-06-12T23:55:01.064Z,15.20
2018-06-12T23:57:30.056Z,15.20
2018-06-12T23:59:59.099Z,15.20
